Airfield :
LOGIN :

Register | Disclaimer

   EN    FR    IT 

 










Legend :    VFR   Marginal VFR   IFR   Intensive IFR   Very Intensive IFR
Visi :
Ceiling :
>= 8 km
>= 3000ft
5 to 8 km
1000 to 3000 ft
1500m to 5 km
500 to 1000 ft
800 to 1500m
200 to 500 ft
< 800m
< 200 ft
Symbols :   Thunderstorms  Fog  Heavy snow  Heavy precipitations  Wind > 20 kt
SIGMETs :     Misc.  Thunderstorms  Icing  Turbulence  Mountain Waves  Volcanic Ashes







- Airport Elevation : 13 ft
- IATA code : LYX
- Download approach charts


EGMD - Lydd

CURRENT METAR :
  • 151050Z 21011KT 9999 FEW006 SCT009 BKN023 19/17 Q1010

EXPIRED METARs :
  • 151020Z 22010KT 9999 SCT006 19/18 Q1010
  • 150950Z 22008KT 9999 SCT006 19/18 Q1009
  • 150920Z 22009KT 9999 FEW004 SCT008 18/17 Q1009
  • 150850Z 19008KT 9999 BKN004 BKN008 18/17 Q1009
  • 150820Z VRB02KT 9999 FEW044 18/17 Q1008

TAF AMD TAF EGMD
Valid from the 15 at 09:00 until the 15 at 18:00 UTC


150903Z 1509/1518 09008KT 9999 SCT020
TEMPO 1509/1512 6000 BKN004
ATIS : +44 1797 322 422
No reported NOTAMs for that airfield.
2 SIGMETs reported for the London FIR (EGTT) :
 
SIGMET 02 cancelation
EGTT SIGMET 03 VALID 150705/151100 EGRR
EGTT LONDON FIR CNL SIGMET 02 150700/151100=
SIGMET 02  CANCELED :
Embedded thunderstorms
EGTT SIGMET 02 VALID 150700/151100 EGRR
EGTT LONDON FIR EMBD TS FCST WI N5427 E00255 - N5135 E00126 - N5103 W00016 - N5236 W00022 - N5427 E00255 TOP FL280 MOV NE 10KT WKN=



MET'MAP, your aeronautical weather chart ! - Copyright ORBIFLY December 2007 - Disclaimer

ORBIFLY MET'MAP TEAM :

Programming & Development : Alexandra Zaïnal
Concept & Development : Baudouin d'Aumeries
Co-Development & Prog : Marc-Olivier Méhu
Technical & hardware support : Manuel Goepfert

Contact : metmap@orbifly.com




SOURCES & CREDITS :

   NOAA